QTR1152 OTHH-OEDF
Flight info
| Callsign | QTR1152 |
|---|---|
| Flight time | 0h 29m |
| Altitude | 16000 |
| Route | TULUB B457 NARMI |
| Aircraft | A320/M-SDE3FGHIRWY/LB1 |
Departure
| Time | 2026-05-04 15:01 |
|---|---|
| Airport | Hamad International Airport (OTHH) |
Arrival
| Time | 2026-05-04 15:30 |
|---|---|
| Airport | King Fahd International Airport (OEDF) |
| Time | Latitude | Longitude | Altitude | Speed | Heading |
|---|---|---|---|---|---|
| 2026-05-04 14:41 | 25.26880 | 51.61272 | 30 ft | 0 kts | 294° |
| 2026-05-04 14:50 | 25.26871 | 51.61296 | 30 ft | 4 kts | 293° |
| 2026-05-04 14:51 | 25.26860 | 51.61323 | 30 ft | 4 kts | 296° |
| 2026-05-04 14:51 | 25.26846 | 51.61348 | 30 ft | 4 kts | 313° |
| 2026-05-04 14:51 | 25.26826 | 51.61364 | 30 ft | 4 kts | 354° |
| 2026-05-04 14:51 | 25.26812 | 51.61363 | 30 ft | 1 kts | 23° |
| 2026-05-04 14:52 | 25.26810 | 51.61362 | 30 ft | 0 kts | 23° |
| 2026-05-04 14:54 | 25.26819 | 51.61367 | 30 ft | 6 kts | 23° |
| 2026-05-04 14:54 | 25.26862 | 51.61386 | 30 ft | 6 kts | 22° |
| 2026-05-04 14:54 | 25.26900 | 51.61402 | 30 ft | 5 kts | 22° |
| 2026-05-04 14:55 | 25.26935 | 51.61418 | 30 ft | 6 kts | 22° |
| 2026-05-04 14:55 | 25.26974 | 51.61436 | 30 ft | 7 kts | 26° |
| 2026-05-04 14:55 | 25.27023 | 51.61519 | 30 ft | 16 kts | 71° |
| 2026-05-04 14:55 | 25.27066 | 51.61641 | 30 ft | 18 kts | 68° |
| 2026-05-04 14:56 | 25.27107 | 51.61760 | 29 ft | 16 kts | 78° |
| 2026-05-04 14:56 | 25.27023 | 51.61825 | 28 ft | 17 kts | 159° |
| 2026-05-04 14:56 | 25.26907 | 51.61875 | 28 ft | 19 kts | 157° |
| 2026-05-04 14:56 | 25.26778 | 51.61935 | 28 ft | 21 kts | 157° |
| 2026-05-04 14:57 | 25.26635 | 51.61997 | 28 ft | 23 kts | 159° |
| 2026-05-04 14:57 | 25.26479 | 51.62064 | 29 ft | 25 kts | 159° |
| 2026-05-04 14:57 | 25.26316 | 51.62135 | 29 ft | 26 kts | 158° |
| 2026-05-04 14:57 | 25.26143 | 51.62212 | 30 ft | 27 kts | 158° |
| 2026-05-04 14:58 | 25.25962 | 51.62293 | 29 ft | 29 kts | 158° |
| 2026-05-04 14:58 | 25.25772 | 51.62378 | 29 ft | 30 kts | 158° |
| 2026-05-04 14:58 | 25.25586 | 51.62457 | 28 ft | 22 kts | 160° |
| 2026-05-04 14:58 | 25.25495 | 51.62528 | 28 ft | 14 kts | 90° |
| 2026-05-04 14:59 | 25.25549 | 51.62633 | 27 ft | 17 kts | 57° |
| 2026-05-04 14:59 | 25.25605 | 51.62652 | 27 ft | 0 kts | 335° |
| 2026-05-04 15:00 | 25.25617 | 51.62645 | 27 ft | 11 kts | 335° |
| 2026-05-04 15:01 | 25.26718 | 51.62159 | 24 ft | 148 kts | 338° |
| 2026-05-04 15:01 | 25.27756 | 51.61705 | 466 ft | 162 kts | 339° |
| 2026-05-04 15:01 | 25.28816 | 51.61249 | 1180 ft | 165 kts | 339° |
| 2026-05-04 15:01 | 25.29912 | 51.60786 | 1795 ft | 176 kts | 339° |
| 2026-05-04 15:02 | 25.31109 | 51.60273 | 2252 ft | 192 kts | 338° |
| 2026-05-04 15:02 | 25.32389 | 51.59717 | 2692 ft | 211 kts | 339° |
| 2026-05-04 15:02 | 25.33847 | 51.59172 | 3219 ft | 231 kts | 352° |
| 2026-05-04 15:02 | 25.35486 | 51.59311 | 3867 ft | 247 kts | 13° |
| 2026-05-04 15:03 | 25.37183 | 51.59847 | 4627 ft | 258 kts | 18° |
| 2026-05-04 15:03 | 25.38905 | 51.60483 | 5568 ft | 262 kts | 19° |
| 2026-05-04 15:03 | 25.40647 | 51.61122 | 6503 ft | 266 kts | 18° |
| 2026-05-04 15:03 | 25.42423 | 51.61745 | 7421 ft | 270 kts | 17° |
| 2026-05-04 15:04 | 25.44232 | 51.62343 | 8328 ft | 273 kts | 16° |
| 2026-05-04 15:04 | 25.46077 | 51.62924 | 9206 ft | 277 kts | 15° |
| 2026-05-04 15:04 | 25.47949 | 51.63476 | 10073 ft | 280 kts | 14° |
| 2026-05-04 15:04 | 25.49890 | 51.63974 | 10636 ft | 297 kts | 12° |
| 2026-05-04 15:05 | 25.51992 | 51.64473 | 10944 ft | 321 kts | 12° |
| 2026-05-04 15:05 | 25.54255 | 51.64997 | 11255 ft | 341 kts | 12° |
| 2026-05-04 15:05 | 25.56582 | 51.65480 | 11871 ft | 349 kts | 6° |
| 2026-05-04 15:05 | 25.59023 | 51.65539 | 12593 ft | 353 kts | 355° |
| 2026-05-04 15:06 | 25.61461 | 51.65107 | 13323 ft | 357 kts | 347° |
| 2026-05-04 15:06 | 25.63903 | 51.64512 | 14039 ft | 360 kts | 347° |
| 2026-05-04 15:06 | 25.66364 | 51.63918 | 14732 ft | 364 kts | 348° |
| 2026-05-04 15:07 | 25.71360 | 51.62715 | 15898 ft | 371 kts | 347° |
| 2026-05-04 15:07 | 25.73843 | 51.61866 | 15998 ft | 381 kts | 338° |
| 2026-05-04 15:07 | 25.76350 | 51.60700 | 16012 ft | 400 kts | 337° |
| 2026-05-04 15:07 | 25.78946 | 51.59479 | 16009 ft | 408 kts | 337° |
| 2026-05-04 15:08 | 25.81504 | 51.58094 | 16008 ft | 410 kts | 329° |
| 2026-05-04 15:08 | 25.83816 | 51.56246 | 16009 ft | 410 kts | 319° |
| 2026-05-04 15:08 | 25.85806 | 51.53985 | 16009 ft | 410 kts | 309° |
| 2026-05-04 15:08 | 25.87414 | 51.51378 | 16009 ft | 410 kts | 299° |
| 2026-05-04 15:09 | 25.88764 | 51.48588 | 16009 ft | 410 kts | 298° |
| 2026-05-04 15:09 | 25.90113 | 51.45798 | 16009 ft | 410 kts | 298° |
| 2026-05-04 15:09 | 25.91447 | 51.43047 | 16009 ft | 410 kts | 298° |
| 2026-05-04 15:10 | 25.94152 | 51.37460 | 16011 ft | 410 kts | 298° |
| 2026-05-04 15:10 | 25.95499 | 51.34668 | 16013 ft | 410 kts | 298° |
| 2026-05-04 15:10 | 25.98195 | 51.29069 | 16016 ft | 411 kts | 298° |
| 2026-05-04 15:11 | 25.99525 | 51.26257 | 16018 ft | 411 kts | 297° |
| 2026-05-04 15:11 | 26.00844 | 51.23436 | 16019 ft | 411 kts | 297° |
| 2026-05-04 15:11 | 26.02156 | 51.20610 | 16020 ft | 411 kts | 297° |
| 2026-05-04 15:11 | 26.03464 | 51.17787 | 16021 ft | 411 kts | 297° |
| 2026-05-04 15:12 | 26.04774 | 51.14967 | 16022 ft | 411 kts | 297° |
| 2026-05-04 15:12 | 26.06089 | 51.12144 | 16023 ft | 411 kts | 297° |
| 2026-05-04 15:12 | 26.07407 | 51.09325 | 16027 ft | 411 kts | 297° |
| 2026-05-04 15:12 | 26.08725 | 51.06502 | 16025 ft | 411 kts | 297° |
| 2026-05-04 15:13 | 26.10023 | 51.03718 | 16024 ft | 411 kts | 297° |
| 2026-05-04 15:13 | 26.11336 | 51.00896 | 16029 ft | 411 kts | 297° |
| 2026-05-04 15:13 | 26.12599 | 50.98040 | 16025 ft | 411 kts | 295° |
| 2026-05-04 15:13 | 26.13801 | 50.95157 | 16027 ft | 411 kts | 294° |
| 2026-05-04 15:14 | 26.14968 | 50.92256 | 16027 ft | 411 kts | 294° |
| 2026-05-04 15:14 | 26.16125 | 50.89350 | 16027 ft | 411 kts | 294° |
| 2026-05-04 15:14 | 26.17285 | 50.86447 | 15950 ft | 405 kts | 294° |
| 2026-05-04 15:14 | 26.18420 | 50.83636 | 15702 ft | 393 kts | 294° |
| 2026-05-04 15:15 | 26.19544 | 50.80878 | 15446 ft | 389 kts | 294° |
| 2026-05-04 15:15 | 26.20663 | 50.78149 | 15198 ft | 387 kts | 294° |
| 2026-05-04 15:15 | 26.21780 | 50.75431 | 14948 ft | 385 kts | 294° |
| 2026-05-04 15:16 | 26.23990 | 50.70047 | 14449 ft | 382 kts | 294° |
| 2026-05-04 15:16 | 26.25079 | 50.67379 | 14229 ft | 372 kts | 293° |
| 2026-05-04 15:16 | 26.26330 | 50.61891 | 13151 ft | 364 kts | 278° |
| 2026-05-04 15:17 | 26.26681 | 50.59106 | 12551 ft | 362 kts | 278° |
| 2026-05-04 15:17 | 26.27385 | 50.53575 | 11327 ft | 358 kts | 278° |
| 2026-05-04 15:17 | 26.27731 | 50.50881 | 11145 ft | 343 kts | 278° |
| 2026-05-04 15:18 | 26.28063 | 50.48308 | 11018 ft | 328 kts | 278° |
| 2026-05-04 15:18 | 26.28379 | 50.45847 | 10893 ft | 314 kts | 278° |
| 2026-05-04 15:18 | 26.28684 | 50.43505 | 10768 ft | 302 kts | 278° |
| 2026-05-04 15:19 | 26.29260 | 50.39022 | 10392 ft | 285 kts | 278° |
| 2026-05-04 15:19 | 26.29538 | 50.36845 | 10129 ft | 282 kts | 278° |
| 2026-05-04 15:19 | 26.30036 | 50.32546 | 9433 ft | 278 kts | 271° |
| 2026-05-04 15:20 | 26.29966 | 50.30400 | 9068 ft | 277 kts | 267° |
| 2026-05-04 15:20 | 26.29865 | 50.28264 | 8703 ft | 275 kts | 267° |
| 2026-05-04 15:20 | 26.29760 | 50.26134 | 8335 ft | 274 kts | 267° |
| 2026-05-04 15:20 | 26.29658 | 50.24022 | 7957 ft | 272 kts | 267° |
| 2026-05-04 15:21 | 26.29560 | 50.21920 | 7578 ft | 271 kts | 267° |
| 2026-05-04 15:21 | 26.29462 | 50.19831 | 7197 ft | 269 kts | 267° |
| 2026-05-04 15:21 | 26.29269 | 50.15681 | 6425 ft | 266 kts | 267° |
| 2026-05-04 15:22 | 26.29175 | 50.13629 | 6233 ft | 264 kts | 267° |
| 2026-05-04 15:22 | 26.29081 | 50.11647 | 6225 ft | 247 kts | 267° |
| 2026-05-04 15:22 | 26.28906 | 50.08100 | 6228 ft | 220 kts | 267° |
| 2026-05-04 15:23 | 26.28823 | 50.06398 | 6230 ft | 220 kts | 267° |
| 2026-05-04 15:23 | 26.28738 | 50.04698 | 6182 ft | 221 kts | 266° |
| 2026-05-04 15:23 | 26.28621 | 50.02981 | 5870 ft | 222 kts | 265° |
| 2026-05-04 15:23 | 26.28490 | 50.01274 | 5587 ft | 221 kts | 265° |
| 2026-05-04 15:24 | 26.28220 | 49.97871 | 5029 ft | 222 kts | 265° |
| 2026-05-04 15:24 | 26.27951 | 49.94442 | 4472 ft | 222 kts | 265° |
| 2026-05-04 15:25 | 26.27817 | 49.92728 | 4193 ft | 222 kts | 265° |
| 2026-05-04 15:25 | 26.27683 | 49.91012 | 3914 ft | 222 kts | 265° |
| 2026-05-04 15:25 | 26.27551 | 49.89312 | 3749 ft | 216 kts | 265° |
| 2026-05-04 15:26 | 26.27932 | 49.86172 | 3538 ft | 201 kts | 297° |
| 2026-05-04 15:26 | 26.28741 | 49.84935 | 3388 ft | 196 kts | 316° |
| 2026-05-04 15:26 | 26.31144 | 49.83600 | 2943 ft | 196 kts | 345° |
| 2026-05-04 15:27 | 26.32469 | 49.83194 | 2686 ft | 199 kts | 345° |
| 2026-05-04 15:27 | 26.35060 | 49.82396 | 2171 ft | 182 kts | 345° |
| 2026-05-04 15:28 | 26.37337 | 49.81694 | 1716 ft | 161 kts | 345° |
| 2026-05-04 15:28 | 26.38380 | 49.81372 | 1514 ft | 151 kts | 345° |
| 2026-05-04 15:28 | 26.40271 | 49.80790 | 1139 ft | 136 kts | 345° |
| 2026-05-04 15:29 | 26.41176 | 49.80514 | 966 ft | 135 kts | 345° |
| 2026-05-04 15:30 | 26.44751 | 49.79397 | 246 ft | 134 kts | 344° |
| 2026-05-04 15:30 | 26.46639 | 49.78824 | 90 ft | 19 kts | 344° |
| 2026-05-04 15:31 | 26.46973 | 49.78715 | 89 ft | 33 kts | 343° |
| 2026-05-04 15:31 | 26.47179 | 49.78728 | 89 ft | 29 kts | 13° |
| 2026-05-04 15:32 | 26.47373 | 49.78934 | 86 ft | 13 kts | 169° |
| 2026-05-04 15:32 | 26.47238 | 49.78964 | 86 ft | 11 kts | 166° |
| 2026-05-04 15:33 | 26.47099 | 49.79005 | 86 ft | 10 kts | 162° |
| 2026-05-04 15:34 | 26.46989 | 49.79139 | 86 ft | 13 kts | 76° |
| 2026-05-04 15:34 | 26.47015 | 49.79241 | 88 ft | 13 kts | 74° |
| 2026-05-04 15:34 | 26.47016 | 49.79324 | 85 ft | 2 kts | 119° |
| 2026-05-04 15:35 | 26.46939 | 49.79376 | 88 ft | 6 kts | 154° |
| 2026-05-04 15:35 | 26.46924 | 49.79406 | 85 ft | 1 kts | 81° |
| 2026-05-04 15:35 | 26.46938 | 49.79441 | 87 ft | 7 kts | 64° |
| 2026-05-04 15:36 | 26.46951 | 49.79470 | 90 ft | 0 kts | 63° |